Time;durP1;ratioP1;P1;durP2;ratioP2;P2;SDS_P1;SDS_P2;PMS_P1;PMS_P2;Temp;Humidity;BMP_temperature;BMP_pressure;BME280_temperature;BME280_humidity;BME280_pressure;Samples;Min_cycle;Max_cycle;Signal;HPM_P1;HPM_P2
2022/06/13 00:00:12;;;;;;;;;;;;;;;18.60;62.19;100205.91;1675210;86;20219;-61
2022/06/13 00:03:18;;;;;;;;;;;;;;;18.58;62.31;100218.62;1675258;85;20263;-61
2022/06/13 00:06:23;;;;;;;;;;;;;;;18.54;62.39;100222.92;1675204;85;20290;-61
2022/06/13 00:09:27;;;;;;;;;;;;;;;18.47;62.46;100221.31;1695259;84;20190;-60
2022/06/13 00:12:34;;;;;;;;;;;;;;;18.41;62.55;100221.67;1695282;85;20269;-63
2022/06/13 00:15:39;;;;;;;;;;;;;;;18.34;62.74;100227.82;1676090;85;20191;-62
2022/06/13 00:18:47;;;;;;;;;;;;;;;18.28;62.88;100221.81;1675726;85;20235;-61
2022/06/13 00:21:52;;;;;;;;;;;;;;;18.24;63.02;100235.80;1675633;85;20215;-61
2022/06/13 00:24:57;;;;;;;;;;;;;;;18.18;63.10;100229.80;1675417;85;20242;-62
2022/06/13 00:28:01;;;;;;;;;;;;;;;18.14;63.23;100236.03;1675409;86;20215;-61
2022/06/13 00:31:05;;;;;;;;;;;;;;;18.12;63.38;100243.71;1675440;86;20243;-61
2022/06/13 00:34:11;;;;;;;;;;;;;;;18.13;63.55;100244.87;1675318;86;20266;-61
2022/06/13 00:37:15;;;;;;;;;;;;;;;18.13;63.65;100246.25;1675374;86;20231;-61
2022/06/13 00:40:22;;;;;;;;;;;;;;;18.13;63.75;100243.48;1675329;86;20195;-61
2022/06/13 00:43:25;;;;;;;;;;;;;;;18.15;63.83;100250.18;1675484;85;20556;-61
2022/06/13 00:46:39;;;;;;;;;;;;;;;18.15;63.97;100251.03;1677207;85;20195;-61
2022/06/13 00:49:50;;;;;;;;;;;;;;;18.18;64.09;100249.72;1677319;85;20183;-61
2022/06/13 00:53:02;;;;;;;;;;;;;;;18.21;64.17;100253.42;1677053;85;20211;-61
2022/06/13 00:56:09;;;;;;;;;;;;;;;18.23;64.27;100254.05;1677137;85;20191;-62
2022/06/13 00:59:16;;;;;;;;;;;;;;;18.24;64.34;100252.43;1677166;85;20278;-61
2022/06/13 01:02:24;;;;;;;;;;;;;;;18.20;64.30;100242.89;1662207;85;20242;-61
2022/06/13 01:05:32;;;;;;;;;;;;;;;18.17;64.40;100244.70;1677101;85;20243;-61
2022/06/13 01:08:38;;;;;;;;;;;;;;;18.14;64.50;100242.95;1677307;85;20195;-61
2022/06/13 01:11:46;;;;;;;;;;;;;;;18.14;64.62;100238.23;1677228;85;20191;-61
2022/06/13 01:15:01;;;;;;;;;;;;;;;18.15;64.78;100239.95;1677238;85;20206;-60
2022/06/13 01:18:14;;;;;;;;;;;;;;;18.17;64.84;100243.32;1677161;85;20215;-61
2022/06/13 01:21:25;;;;;;;;;;;;;;;18.12;64.79;100236.26;1677304;85;20199;-62
2022/06/13 01:24:43;;;;;;;;;;;;;;;18.10;64.92;100232.86;1677068;85;20246;-62
2022/06/13 01:27:59;;;;;;;;;;;;;;;18.08;64.94;100232.76;1677404;85;20199;-61
2022/06/13 01:31:17;;;;;;;;;;;;;;;18.04;64.97;100233.78;1677388;85;20231;-61
2022/06/13 01:34:28;;;;;;;;;;;;;;;18.03;65.08;100232.63;1677191;85;20191;-61
2022/06/13 01:37:50;;;;;;;;;;;;;;;18.05;65.25;100227.67;1677259;85;20262;-61
2022/06/13 01:41:02;;;;;;;;;;;;;;;18.07;65.42;100231.93;1677245;85;20238;-61
2022/06/13 01:44:23;;;;;;;;;;;;;;;18.09;65.46;100233.09;1677095;85;20199;-61
2022/06/13 01:47:42;;;;;;;;;;;;;;;18.05;65.41;100227.15;1679345;85;20302;-61
2022/06/13 01:50:57;;;;;;;;;;;;;;;18.07;65.54;100222.23;1739709;82;20241;-61
2022/06/13 01:54:23;;;;;;;;;;;;;;;18.06;65.48;100223.30;1739955;82;20229;-61
2022/06/13 01:57:42;;;;;;;;;;;;;;;18.03;65.54;100222.36;1740025;82;20190;-61
2022/06/13 02:00:48;;;;;;;;;;;;;;;18.05;65.69;100222.99;1704399;84;20208;-61
2022/06/13 02:04:05;;;;;;;;;;;;;;;18.05;65.67;100218.84;1740069;82;20202;-62
2022/06/13 02:07:14;;;;;;;;;;;;;;;18.00;65.64;100214.52;1704399;84;20225;-61
2022/06/13 02:10:27;;;;;;;;;;;;;;;17.95;65.65;100217.11;1683995;85;20254;-62
2022/06/13 02:13:41;;;;;;;;;;;;;;;17.92;65.74;100218.95;1740169;82;20198;-61
2022/06/13 02:17:09;;;;;;;;;;;;;;;17.90;65.79;100221.95;1740199;82;20181;-61
2022/06/13 02:20:21;;;;;;;;;;;;;;;17.86;65.80;100215.72;1704326;84;20272;-61
2022/06/13 02:23:28;;;;;;;;;;;;;;;17.84;65.90;100215.09;1740188;82;20217;-61
2022/06/13 02:26:36;;;;;;;;;;;;;;;17.85;66.01;100216.25;1704336;84;20228;-61
2022/06/13 02:29:46;;;;;;;;;;;;;;;17.89;66.17;100223.57;1684020;85;20202;-61
2022/06/13 02:33:01;;;;;;;;;;;;;;;17.95;66.27;100215.73;1739837;82;20226;-61
2022/06/13 02:36:18;;;;;;;;;;;;;;;18.02;66.29;100219.30;1689423;84;20208;-62
2022/06/13 02:39:29;;;;;;;;;;;;;;;18.04;66.28;100213.00;1740083;82;20213;-61
2022/06/13 02:42:41;;;;;;;;;;;;;;;18.06;66.29;100213.59;1740125;82;20218;-61
2022/06/13 02:45:51;;;;;;;;;;;;;;;18.09;66.36;100224.25;1704393;82;20595;-61
2022/06/13 02:49:01;;;;;;;;;;;;;;;18.15;66.46;100230.26;1739734;82;20222;-62
2022/06/13 02:52:09;;;;;;;;;;;;;;;18.21;66.48;100227.95;1704476;84;20217;-61
2022/06/13 02:55:16;;;;;;;;;;;;;;;18.28;66.48;100223.20;1740094;82;20206;-61
2022/06/13 02:58:26;;;;;;;;;;;;;;;18.35;66.53;100217.55;1704297;84;20256;-62
2022/06/13 03:01:36;;;;;;;;;;;;;;;18.41;66.63;100224.45;1740116;82;20202;-62
2022/06/13 03:04:44;;;;;;;;;;;;;;;18.50;66.71;100223.09;1704110;84;20304;-60
2022/06/13 03:07:52;;;;;;;;;;;;;;;18.59;66.75;100223.61;1740194;82;20209;-61
2022/06/13 03:11:22;;;;;;;;;;;;;;;18.68;66.88;100218.91;1740088;82;20526;-62
2022/06/13 03:14:43;;;;;;;;;;;;;;;18.81;66.89;100220.66;1704376;84;20188;-60
2022/06/13 03:17:53;;;;;;;;;;;;;;;18.90;66.84;100225.66;1727035;82;20641;-61
2022/06/13 03:21:17;;;;;;;;;;;;;;;18.98;66.88;100227.28;1704338;84;20505;-58
2022/06/13 03:24:26;;;;;;;;;;;;;;;19.07;66.99;100228.64;1740074;82;20210;-61
2022/06/13 03:27:30;;;;;;;;;;;;;;;19.18;66.96;100222.30;1704328;84;20193;-62
2022/06/13 03:30:26;;;;;;;;;;;;;;;19.22;66.88;100228.52;1683979;85;20191;-60
2022/06/13 03:36:44;;;;;;;;;;;;;;;19.29;66.95;100233.48;1704346;84;20185;-61
2022/06/13 03:39:44;;;;;;;;;;;;;;;19.38;67.08;100233.98;1739897;82;20214;-61
2022/06/13 03:42:55;;;;;;;;;;;;;;;19.47;67.13;100238.14;1704429;84;20292;-61
2022/06/13 03:46:13;;;;;;;;;;;;;;;19.54;67.13;100231.06;1727392;82;20206;-62
2022/06/13 03:49:19;;;;;;;;;;;;;;;19.56;67.06;100233.06;1733295;83;20194;-62
2022/06/13 03:52:24;;;;;;;;;;;;;;;19.60;67.14;100230.96;1735111;83;20568;-61
2022/06/13 03:55:32;;;;;;;;;;;;;;;19.68;67.26;100234.78;1699833;84;20201;-61
2022/06/13 03:58:48;;;;;;;;;;;;;;;19.78;67.34;100234.20;1679615;85;20555;-61
2022/06/13 04:02:12;;;;;;;;;;;;;;;19.88;67.42;100234.47;1679630;85;20219;-60
2022/06/13 04:05:44;;;;;;;;;;;;;;;19.98;67.47;100236.94;1679541;85;20258;-60
2022/06/13 04:08:49;;;;;;;;;;;;;;;20.12;67.54;100232.84;1679682;85;20238;-60
2022/06/13 04:12:25;;;;;;;;;;;;;;;20.24;67.58;100238.44;1679449;85;20191;-62
2022/06/13 04:15:46;;;;;;;;;;;;;;;20.36;67.58;100240.70;1679956;85;20227;-60
2022/06/13 04:19:10;;;;;;;;;;;;;;;20.49;67.61;100238.48;1679354;85;20277;-60
2022/06/13 04:22:18;;;;;;;;;;;;;;;20.58;67.54;100234.80;1679653;85;20210;-60
2022/06/13 04:25:35;;;;;;;;;;;;;;;20.62;67.50;100237.38;1679672;85;20194;-62
2022/06/13 04:28:44;;;;;;;;;;;;;;;20.67;67.57;100227.23;1679497;85;20195;-61
2022/06/13 04:31:49;;;;;;;;;;;;;;;20.76;67.59;100226.28;1679636;85;20246;-60
2022/06/13 04:34:56;;;;;;;;;;;;;;;20.84;67.63;100227.29;1679669;85;20211;-61
2022/06/13 04:38:03;;;;;;;;;;;;;;;20.91;67.68;100232.19;1679679;85;20248;-61
2022/06/13 04:41:09;;;;;;;;;;;;;;;21.00;67.71;100227.95;1678948;85;20283;-60
2022/06/13 04:44:16;;;;;;;;;;;;;;;21.10;67.77;100236.52;1664562;85;20281;-62
2022/06/13 04:47:23;;;;;;;;;;;;;;;21.23;67.81;100237.58;1665026;85;20547;-60
2022/06/13 04:50:38;;;;;;;;;;;;;;;21.37;67.86;100233.43;1650428;87;20644;-61
2022/06/13 04:53:51;;;;;;;;;;;;;;;21.52;67.85;100228.13;1639561;87;20221;-61
2022/06/13 04:57:01;;;;;;;;;;;;;;;21.65;67.82;100215.28;1639283;87;20277;-60
2022/06/13 05:00:06;;;;;;;;;;;;;;;21.80;67.81;100221.70;1642507;86;20249;-59
2022/06/13 05:03:15;;;;;;;;;;;;;;;21.91;67.75;100222.17;1650678;86;20222;-59
2022/06/13 05:06:40;;;;;;;;;;;;;;;22.03;67.74;100226.56;1645049;86;20268;-55
2022/06/13 05:09:51;;;;;;;;;;;;;;;22.15;67.67;100225.08;1643641;87;20641;-58
2022/06/13 05:12:56;;;;;;;;;;;;;;;22.25;67.64;100222.43;1637481;87;20633;-58
2022/06/13 05:16:04;;;;;;;;;;;;;;;22.35;67.63;100230.11;1628259;87;20217;-58
2022/06/13 05:19:14;;;;;;;;;;;;;;;22.44;67.63;100225.80;1628530;87;20251;-58
2022/06/13 05:22:48;;;;;;;;;;;;;;;22.54;67.64;100230.14;1645467;87;20628;-56
2022/06/13 05:25:57;;;;;;;;;;;;;;;22.68;67.66;100223.09;1637975;87;20265;-58
2022/06/13 05:29:04;;;;;;;;;;;;;;;22.81;67.52;100229.69;1628580;87;20225;-59
2022/06/13 05:32:12;;;;;;;;;;;;;;;22.90;67.39;100232.31;1621220;88;20235;-58
2022/06/13 05:35:24;;;;;;;;;;;;;;;22.97;67.34;100229.64;1621422;88;20619;-59
2022/06/13 05:38:36;;;;;;;;;;;;;;;23.07;67.32;100233.93;1622053;88;20576;-58
2022/06/13 05:41:41;;;;;;;;;;;;;;;23.12;67.27;100228.98;1622859;86;20266;-58
2022/06/13 05:44:46;;;;;;;;;;;;;;;23.22;67.30;100224.89;1622194;87;20221;-58
2022/06/13 05:47:57;;;;;;;;;;;;;;;23.34;67.26;100224.24;1624336;87;20556;-58
2022/06/13 05:51:02;;;;;;;;;;;;;;;23.42;67.20;100226.57;1678940;83;20214;-58
2022/06/13 05:54:08;;;;;;;;;;;;;;;23.50;67.13;100228.86;1728198;82;20565;-58
2022/06/13 05:57:12;;;;;;;;;;;;;;;23.56;67.02;100227.25;1737420;81;20226;-59
2022/06/13 06:00:24;;;;;;;;;;;;;;;23.62;66.93;100229.56;1726345;81;20212;-59
2022/06/13 06:03:29;;;;;;;;;;;;;;;23.68;66.88;100224.30;1716193;82;20202;-58
2022/06/13 06:06:35;;;;;;;;;;;;;;;23.78;66.87;100233.34;1715583;81;20277;-57
2022/06/13 06:09:41;;;;;;;;;;;;;;;23.84;66.77;100231.73;1734976;82;20214;-57
2022/06/13 06:12:45;;;;;;;;;;;;;;;23.89;66.66;100226.19;1737985;82;20217;-58
2022/06/13 06:15:51;;;;;;;;;;;;;;;23.99;66.59;100222.67;1738228;82;20503;-59
2022/06/13 06:19:00;;;;;;;;;;;;;;;24.07;66.63;100214.60;1738170;82;20230;-58
2022/06/13 06:22:07;;;;;;;;;;;;;;;24.15;66.53;100223.08;1733862;82;20218;-56
2022/06/13 06:25:07;;;;;;;;;;;;;;;24.21;66.35;100216.41;1726631;82;20237;-58
2022/06/13 06:28:15;;;;;;;;;;;;;;;24.24;66.27;100220.91;1727301;82;20505;-58
2022/06/13 06:31:21;;;;;;;;;;;;;;;24.32;66.22;100219.02;1731296;81;20213;-58
2022/06/13 06:34:30;;;;;;;;;;;;;;;24.40;66.12;100214.86;1691936;84;20268;-59
2022/06/13 06:37:34;;;;;;;;;;;;;;;24.47;66.07;100219.09;1735061;82;20554;-58
2022/06/13 06:40:39;;;;;;;;;;;;;;;24.54;65.99;100219.71;1722125;82;20257;-58
2022/06/13 06:43:45;;;;;;;;;;;;;;;24.62;65.94;100213.61;1738327;82;20591;-56
2022/06/13 06:46:52;;;;;;;;;;;;;;;24.70;65.88;100220.13;1738769;82;20214;-55
2022/06/13 06:49:58;;;;;;;;;;;;;;;24.76;65.71;100219.58;1704579;84;20296;-55
2022/06/13 06:53:04;;;;;;;;;;;;;;;24.83;65.64;100217.38;1738021;82;20667;-56
2022/06/13 07:02:58;;;;;;;;;;;;;;;24.95;65.32;100221.64;1727618;80;20637;-55
2022/06/13 07:06:04;;;;;;;;;;;;;;;25.01;65.32;100220.54;1738865;82;20593;-57
2022/06/13 07:09:13;;;;;;;;;;;;;;;25.07;65.30;100215.78;1727087;81;20387;-54
2022/06/13 07:12:19;;;;;;;;;;;;;;;25.18;65.25;100221.70;1726494;81;20648;-54
2022/06/13 07:15:25;;;;;;;;;;;;;;;25.29;65.20;100226.80;1737948;82;20564;-55
2022/06/13 07:18:35;;;;;;;;;;;;;;;25.36;65.06;100224.05;1738108;82;20527;-55
2022/06/13 07:21:40;;;;;;;;;;;;;;;25.42;64.88;100231.34;1734553;81;20235;-54
2022/06/13 07:24:46;;;;;;;;;;;;;;;25.43;64.72;100219.58;1733100;82;20610;-55
2022/06/13 07:27:54;;;;;;;;;;;;;;;25.47;64.69;100224.90;1735823;82;20217;-55
2022/06/13 07:31:00;;;;;;;;;;;;;;;25.51;64.57;100222.70;1732634;82;20354;-56
2022/06/13 07:34:05;;;;;;;;;;;;;;;25.54;64.42;100223.54;1726749;81;20206;-57
2022/06/13 07:37:11;;;;;;;;;;;;;;;25.59;64.32;100220.75;1724137;82;20410;-59
2022/06/13 07:40:04;;;;;;;;;;;;;;;25.63;64.28;100224.66;1711457;82;20206;-55
2022/06/13 07:43:11;;;;;;;;;;;;;;;25.73;64.23;100230.85;1713697;82;20210;-57
2022/06/13 07:46:17;;;;;;;;;;;;;;;25.76;64.03;100233.09;1724113;82;20269;-56
2022/06/13 07:49:24;;;;;;;;;;;;;;;25.79;63.92;100236.19;1731247;81;20607;-55
2022/06/13 07:52:31;;;;;;;;;;;;;;;25.87;63.95;100229.17;1706813;82;20225;-54
2022/06/13 07:55:36;;;;;;;;;;;;;;;25.95;63.79;100242.65;1723706;82;20218;-54
2022/06/13 07:58:43;;;;;;;;;;;;;;;25.99;63.67;100234.80;1711493;84;20541;-53
2022/06/13 08:01:50;;;;;;;;;;;;;;;26.06;63.56;100232.59;1701840;84;20216;-55
2022/06/13 08:04:55;;;;;;;;;;;;;;;26.09;63.31;100239.59;1731116;83;20551;-58
2022/06/13 08:07:59;;;;;;;;;;;;;;;26.10;63.16;100228.67;1731332;83;20222;-56
2022/06/13 08:11:06;;;;;;;;;;;;;;;26.12;63.11;100234.27;1731623;83;20214;-56
2022/06/13 08:14:11;;;;;;;;;;;;;;;26.18;63.06;100234.55;1731850;83;20618;-55
2022/06/13 08:17:17;;;;;;;;;;;;;;;26.26;62.96;100233.13;1722404;82;20310;-53
2022/06/13 08:20:25;;;;;;;;;;;;;;;26.33;62.87;100214.05;1723581;82;20214;-59
2022/06/13 08:23:32;;;;;;;;;;;;;;;26.39;62.54;100226.95;1721257;82;20626;-58
2022/06/13 08:26:40;;;;;;;;;;;;;;;26.44;62.30;100225.53;1721376;82;20204;-56
2022/06/13 08:29:47;;;;;;;;;;;;;;;26.53;62.06;100233.66;1672721;85;20600;-56
2022/06/13 08:32:59;;;;;;;;;;;;;;;26.55;61.81;100221.58;1665298;86;20210;-56
2022/06/13 08:36:03;;;;;;;;;;;;;;;26.62;61.75;100228.31;1647984;85;20247;-57
2022/06/13 08:39:08;;;;;;;;;;;;;;;26.72;61.53;100217.91;1661966;85;20223;-56
2022/06/13 08:42:40;;;;;;;;;;;;;;;26.77;61.35;100225.48;1665524;85;20214;-55
2022/06/13 08:45:48;;;;;;;;;;;;;;;26.87;61.24;100226.30;1649147;87;20271;-55
2022/06/13 08:48:53;;;;;;;;;;;;;;;26.97;61.06;100212.23;1675515;85;20604;-56
2022/06/13 08:52:07;;;;;;;;;;;;;;;27.03;60.82;100214.44;1677095;85;20482;-54
2022/06/13 08:55:31;;;;;;;;;;;;;;;27.13;60.78;100215.80;1686757;83;20249;-56
2022/06/13 08:58:54;;;;;;;;;;;;;;;27.29;60.52;100210.42;1666285;85;20527;-54
2022/06/13 09:02:05;;;;;;;;;;;;;;;27.42;60.24;100215.38;1681610;84;20219;-56
2022/06/13 09:05:22;;;;;;;;;;;;;;;27.48;59.99;100219.28;1670034;84;20588;-56
2022/06/13 09:08:32;;;;;;;;;;;;;;;27.55;59.85;100212.78;1659589;83;20585;-55
2022/06/13 09:11:51;;;;;;;;;;;;;;;27.71;59.76;100212.95;1668129;86;20215;-55
2022/06/13 09:14:59;;;;;;;;;;;;;;;27.84;59.38;100226.93;1684314;84;20239;-57
2022/06/13 09:18:10;;;;;;;;;;;;;;;27.74;58.98;100225.03;1665103;84;20207;-57
2022/06/13 09:21:30;;;;;;;;;;;;;;;27.61;58.72;100220.05;1696458;84;20240;-55
2022/06/13 09:24:39;;;;;;;;;;;;;;;27.72;58.70;100222.22;1662221;86;20267;-57
2022/06/13 09:27:49;;;;;;;;;;;;;;;27.82;58.46;100215.97;1668254;86;20207;-56
2022/06/13 09:30:56;;;;;;;;;;;;;;;27.97;58.32;100218.42;1663476;86;20667;-56
2022/06/13 09:34:05;;;;;;;;;;;;;;;28.09;58.08;100224.50;1662985;84;20239;-56
2022/06/13 09:37:32;;;;;;;;;;;;;;;28.14;57.89;100222.49;1671151;84;20250;-55
2022/06/13 09:40:52;;;;;;;;;;;;;;;28.25;57.71;100214.78;1703023;84;20265;-55
2022/06/13 09:44:19;;;;;;;;;;;;;;;28.39;57.57;100210.14;1703524;84;20212;-56
2022/06/13 09:47:50;;;;;;;;;;;;;;;28.36;57.04;100210.73;1704062;84;20565;-55
2022/06/13 09:51:16;;;;;;;;;;;;;;;28.27;56.89;100201.26;1704469;84;20216;-54
2022/06/13 09:54:47;;;;;;;;;;;;;;;28.27;56.67;100202.67;1703798;83;20216;-55
2022/06/13 09:58:03;;;;;;;;;;;;;;;28.12;56.48;100194.34;1675770;86;20226;-54
2022/06/13 10:01:31;;;;;;;;;;;;;;;28.24;56.56;100190.59;1671104;86;20587;-55
2022/06/13 10:04:56;;;;;;;;;;;;;;;28.48;56.47;100201.37;1662093;86;20580;-55
2022/06/13 10:08:19;;;;;;;;;;;;;;;28.74;56.14;100202.19;1686157;85;20226;-56
2022/06/13 10:11:46;;;;;;;;;;;;;;;28.90;55.81;100208.48;1657672;86;20253;-55
2022/06/13 10:14:59;;;;;;;;;;;;;;;28.95;55.44;100208.42;1658891;86;20228;-56
2022/06/13 10:18:11;;;;;;;;;;;;;;;28.78;54.92;100207.48;1652521;86;20225;-56
2022/06/13 10:21:28;;;;;;;;;;;;;;;28.67;54.82;100193.83;1675245;86;20222;-55
2022/06/13 10:24:39;;;;;;;;;;;;;;;28.71;54.67;100197.16;1652707;87;20557;-54
2022/06/13 10:27:56;;;;;;;;;;;;;;;28.82;54.49;100193.64;1663516;84;20216;-56
2022/06/13 10:31:08;;;;;;;;;;;;;;;28.97;54.28;100187.23;1690231;83;20212;-54
2022/06/13 10:34:25;;;;;;;;;;;;;;;29.27;54.23;100186.61;1699297;84;20264;-58
2022/06/13 10:37:47;;;;;;;;;;;;;;;29.43;53.82;100188.07;1697279;84;20556;-58
2022/06/13 10:40:50;;;;;;;;;;;;;;;29.27;53.32;100187.45;1661482;86;20228;-58
2022/06/13 10:43:56;;;;;;;;;;;;;;;29.00;52.94;100191.45;1665514;85;20611;-57
2022/06/13 10:47:05;;;;;;;;;;;;;;;28.91;52.90;100177.17;1693186;84;20233;-58
2022/06/13 10:50:21;;;;;;;;;;;;;;;29.13;52.85;100178.03;1690852;83;20576;-57
2022/06/13 10:53:35;;;;;;;;;;;;;;;29.42;52.72;100178.75;1703184;84;20699;-58
2022/06/13 10:56:45;;;;;;;;;;;;;;;29.61;52.45;100172.54;1681767;84;20561;-57
2022/06/13 10:59:50;;;;;;;;;;;;;;;29.79;51.92;100169.47;1646378;87;20261;-56
2022/06/13 11:02:55;;;;;;;;;;;;;;;29.97;51.69;100166.60;1662220;85;20219;-59
2022/06/13 11:06:05;;;;;;;;;;;;;;;30.20;51.27;100156.32;1673927;85;20291;-57
2022/06/13 11:09:13;;;;;;;;;;;;;;;30.37;51.00;100167.33;1671017;84;20219;-57
2022/06/13 11:12:28;;;;;;;;;;;;;;;30.50;50.68;100162.27;1655957;84;20226;-56
2022/06/13 11:22:39;;;;;;;;;;;;;;;30.01;49.71;100157.80;1676043;84;20528;-59
2022/06/13 11:25:47;;;;;;;;;;;;;;;29.99;49.67;100156.41;1668245;83;20202;-52
2022/06/13 11:28:52;;;;;;;;;;;;;;;30.06;49.60;100149.80;1688723;83;20288;-55
2022/06/13 11:32:01;;;;;;;;;;;;;;;30.19;49.50;100147.59;1688500;85;20221;-58
2022/06/13 11:35:12;;;;;;;;;;;;;;;30.32;49.22;100147.64;1688550;85;20216;-59
2022/06/13 11:38:27;;;;;;;;;;;;;;;30.44;48.87;100141.48;1679290;85;20267;-59
2022/06/13 11:41:49;;;;;;;;;;;;;;;30.53;48.62;100143.28;1625237;88;20270;-60
2022/06/13 11:45:00;;;;;;;;;;;;;;;30.63;48.32;100137.44;1647483;87;20317;-60
2022/06/13 11:48:06;;;;;;;;;;;;;;;30.64;47.87;100132.59;1647349;86;20198;-58
2022/06/13 11:51:13;;;;;;;;;;;;;;;30.70;47.82;100131.93;1648023;86;20684;-59
2022/06/13 11:54:25;;;;;;;;;;;;;;;30.78;47.69;100115.68;1675605;85;20227;-57
2022/06/13 11:57:40;;;;;;;;;;;;;;;30.92;47.57;100127.21;1646595;87;20217;-58
2022/06/13 12:00:58;;;;;;;;;;;;;;;30.94;47.08;100119.86;1648750;86;20241;-58
2022/06/13 12:04:13;;;;;;;;;;;;;;;31.02;46.79;100112.02;1647552;86;20581;-57
2022/06/13 12:07:27;;;;;;;;;;;;;;;31.09;46.42;100112.43;1646123;87;20221;-59
2022/06/13 12:10:41;;;;;;;;;;;;;;;31.20;46.13;100103.97;1639449;85;20219;-56
2022/06/13 12:13:47;;;;;;;;;;;;;;;31.26;45.69;100103.53;1646000;87;20213;-58
2022/06/13 12:17:00;;;;;;;;;;;;;;;31.30;45.15;100100.91;1669841;86;20472;-57
2022/06/13 12:20:05;;;;;;;;;;;;;;;31.20;44.73;100095.48;1638371;87;20214;-57
2022/06/13 12:23:16;;;;;;;;;;;;;;;31.24;44.44;100092.29;1624189;87;20201;-59
2022/06/13 12:26:31;;;;;;;;;;;;;;;31.21;44.24;100095.16;1649436;87;20217;-57
2022/06/13 12:30:02;;;;;;;;;;;;;;;31.03;43.99;100089.09;1649936;87;20229;-60
2022/06/13 12:33:09;;;;;;;;;;;;;;;30.89;43.89;100084.62;1644055;87;20225;-59
2022/06/13 12:36:28;;;;;;;;;;;;;;;30.86;43.77;100089.50;1626733;87;20640;-58
2022/06/13 12:40:08;;;;;;;;;;;;;;;30.89;43.66;100078.36;1641144;86;20222;-59
2022/06/13 12:43:30;;;;;;;;;;;;;;;30.93;43.47;100081.40;1632700;87;20222;-59
2022/06/13 12:46:41;;;;;;;;;;;;;;;30.97;43.30;100075.39;1649862;85;20636;-59
2022/06/13 12:50:11;;;;;;;;;;;;;;;30.97;43.04;100073.97;1608524;87;20212;-58
2022/06/13 12:53:32;;;;;;;;;;;;;;;30.87;42.77;100069.95;1646742;86;20573;-56
2022/06/13 12:56:43;;;;;;;;;;;;;;;30.81;42.64;100073.45;1660054;83;20551;-59
2022/06/13 13:00:04;;;;;;;;;;;;;;;30.91;42.60;100069.56;1673968;86;20219;-59
2022/06/13 13:03:26;;;;;;;;;;;;;;;30.78;42.34;100071.27;1648185;87;20221;-59
2022/06/13 13:06:55;;;;;;;;;;;;;;;30.54;42.21;100068.64;1648963;87;20229;-59
2022/06/13 13:10:20;;;;;;;;;;;;;;;30.40;42.13;100064.98;1642678;85;20511;-60
2022/06/13 13:13:39;;;;;;;;;;;;;;;30.31;42.06;100058.97;1644880;85;20217;-59
2022/06/13 13:16:56;;;;;;;;;;;;;;;30.28;42.00;100049.71;1629846;87;20225;-60
2022/06/13 13:20:14;;;;;;;;;;;;;;;30.28;41.88;100056.77;1643376;87;20209;-60
2022/06/13 13:23:33;;;;;;;;;;;;;;;30.30;41.79;100052.47;1648636;87;20257;-59
2022/06/13 13:26:53;;;;;;;;;;;;;;;30.20;41.59;100056.90;1648800;87;20236;-59
2022/06/13 13:30:19;;;;;;;;;;;;;;;30.08;41.55;100062.20;1644263;85;20249;-59
2022/06/13 13:33:35;;;;;;;;;;;;;;;30.04;41.51;100047.61;1643484;85;20213;-58
2022/06/13 13:36:56;;;;;;;;;;;;;;;30.13;41.52;100047.98;1648435;87;20252;-59
2022/06/13 13:40:26;;;;;;;;;;;;;;;30.19;41.39;100057.21;1639092;85;20205;-58
2022/06/13 13:43:55;;;;;;;;;;;;;;;30.09;41.27;100052.60;1637450;85;20569;-60
2022/06/13 13:47:21;;;;;;;;;;;;;;;30.05;41.26;100051.53;1635113;85;20577;-58
2022/06/13 13:50:33;;;;;;;;;;;;;;;30.01;41.22;100050.50;1626238;87;20591;-61
2022/06/13 13:54:07;;;;;;;;;;;;;;;30.07;41.25;100036.53;1649027;85;20228;-58
2022/06/13 13:57:16;;;;;;;;;;;;;;;30.15;41.26;100030.16;1656800;84;20223;-58
2022/06/13 14:00:30;;;;;;;;;;;;;;;30.26;41.27;100033.08;1657082;85;20630;-59
2022/06/13 14:03:46;;;;;;;;;;;;;;;30.37;41.10;100038.78;1664542;84;20212;-57
2022/06/13 14:07:03;;;;;;;;;;;;;;;30.38;40.98;100031.96;1673299;85;20274;-59
2022/06/13 14:10:24;;;;;;;;;;;;;;;30.38;40.78;100019.25;1673515;86;20292;-56
2022/06/13 14:13:38;;;;;;;;;;;;;;;30.42;40.68;100020.88;1675259;84;20258;-56
2022/06/13 14:16:51;;;;;;;;;;;;;;;30.46;40.53;100029.81;1651340;84;20527;-57
2022/06/13 14:20:05;;;;;;;;;;;;;;;30.43;40.44;100024.80;1645773;87;20851;-57
2022/06/13 14:23:13;;;;;;;;;;;;;;;30.36;40.43;100022.14;1645344;86;20217;-57
2022/06/13 14:26:28;;;;;;;;;;;;;;;30.29;40.38;100009.00;1646122;87;20843;-57
2022/06/13 14:29:36;;;;;;;;;;;;;;;30.26;40.27;100015.28;1674445;85;20242;-57
2022/06/13 14:32:41;;;;;;;;;;;;;;;30.28;40.22;100013.83;1673167;84;20534;-58
2022/06/13 14:35:58;;;;;;;;;;;;;;;30.30;40.14;100005.86;1640341;87;20245;-59
2022/06/13 14:39:04;;;;;;;;;;;;;;;30.28;40.08;100002.53;1648008;87;20231;-58
2022/06/13 14:42:26;;;;;;;;;;;;;;;30.28;40.00;100015.25;1607314;88;20236;-57
2022/06/13 14:46:00;;;;;;;;;;;;;;;30.26;40.00;100011.89;1637910;87;20221;-58
2022/06/13 14:49:10;;;;;;;;;;;;;;;30.22;39.89;100011.42;1650187;87;20191;-59
2022/06/13 14:52:28;;;;;;;;;;;;;;;30.19;39.89;100003.55;1638553;87;20237;-57
2022/06/13 14:55:37;;;;;;;;;;;;;;;30.17;39.88;100005.28;1643394;87;20186;-57
2022/06/13 14:58:54;;;;;;;;;;;;;;;30.16;39.88;100006.41;1645258;84;20264;-58
2022/06/13 15:02:30;;;;;;;;;;;;;;;30.20;39.87;100009.45;1665724;86;20275;-59
2022/06/13 15:05:43;;;;;;;;;;;;;;;30.31;39.86;100007.55;1700188;84;20221;-60
2022/06/13 15:09:02;;;;;;;;;;;;;;;30.29;39.65;100002.78;1699419;84;20288;-57
2022/06/13 15:12:10;;;;;;;;;;;;;;;30.32;39.63;100008.37;1700451;84;20225;-58
2022/06/13 15:15:34;;;;;;;;;;;;;;;30.22;39.49;100013.66;1699361;84;20276;-59
2022/06/13 15:18:41;;;;;;;;;;;;;;;30.11;39.45;100010.74;1699705;84;20228;-58
2022/06/13 15:21:53;;;;;;;;;;;;;;;30.13;39.46;100011.84;1732481;81;20263;-59
2022/06/13 15:25:02;;;;;;;;;;;;;;;30.14;39.44;100015.80;1738833;82;20209;-59
2022/06/13 15:28:08;;;;;;;;;;;;;;;30.21;39.46;100011.99;1739019;82;20210;-57
2022/06/13 15:31:18;;;;;;;;;;;;;;;30.24;39.36;100011.36;1739122;82;20214;-59
2022/06/13 15:34:27;;;;;;;;;;;;;;;30.28;39.34;100010.16;1739185;82;20257;-59
2022/06/13 15:37:53;;;;;;;;;;;;;;;30.32;39.30;100010.63;1730963;82;20594;-58
2022/06/13 15:41:01;;;;;;;;;;;;;;;30.42;39.20;100015.22;1718010;82;20301;-59
2022/06/13 15:44:08;;;;;;;;;;;;;;;30.61;39.04;100021.02;1715242;82;20266;-59
2022/06/13 15:47:15;;;;;;;;;;;;;;;30.76;39.00;100019.00;1713293;83;20217;-58
2022/06/13 15:50:29;;;;;;;;;;;;;;;30.81;38.95;100024.58;1679989;85;20552;-58
2022/06/13 15:53:38;;;;;;;;;;;;;;;30.80;38.80;100031.36;1679777;85;20264;-59
2022/06/13 15:56:45;;;;;;;;;;;;;;;30.76;38.59;100031.19;1680070;85;20232;-58
2022/06/13 16:00:05;;;;;;;;;;;;;;;30.64;38.47;100038.75;1680918;83;20249;-59
2022/06/13 16:03:19;;;;;;;;;;;;;;;30.61;38.33;100034.30;1682851;85;20215;-59
2022/06/13 16:06:25;;;;;;;;;;;;;;;30.59;38.28;100028.97;1702207;84;20241;-58
2022/06/13 16:09:34;;;;;;;;;;;;;;;30.61;38.20;100029.50;1684339;85;20277;-58
2022/06/13 16:12:43;;;;;;;;;;;;;;;30.61;38.13;100033.73;1697023;84;20220;-59
2022/06/13 16:15:50;;;;;;;;;;;;;;;30.61;38.06;100032.33;1707322;84;20193;-57
2022/06/13 16:18:56;;;;;;;;;;;;;;;30.99;37.76;100032.05;1656199;86;20214;-59
2022/06/13 16:22:04;;;;;;;;;;;;;;;32.09;36.94;100036.91;1709119;84;20553;-59
2022/06/13 16:25:10;;;;;;;;;;;;;;;33.19;36.00;100036.41;1679747;84;20218;-59
2022/06/13 16:28:23;;;;;;;;;;;;;;;34.09;35.23;100033.34;1673662;85;20230;-60
2022/06/13 16:31:24;;;;;;;;;;;;;;;34.83;34.59;100027.95;1672068;85;20223;-60
2022/06/13 16:34:32;;;;;;;;;;;;;;;35.27;33.97;100031.58;1658550;84;20611;-59
2022/06/13 16:37:58;;;;;;;;;;;;;;;34.67;33.75;100033.99;1693276;84;20226;-59
2022/06/13 16:41:02;;;;;;;;;;;;;;;33.65;34.00;100037.17;1655471;86;20224;-59